createdAt,value
2023-05-07T00:00:13.144Z,47.33
2023-05-07T00:01:12.861Z,47.26
2023-05-07T00:02:11.876Z,47.29
2023-05-07T00:03:12.014Z,47.27
2023-05-07T00:04:13.137Z,47.22
2023-05-07T00:05:12.373Z,47.26
2023-05-07T00:06:13.117Z,47.19
2023-05-07T00:07:12.172Z,47.20
2023-05-07T00:08:12.135Z,47.23
2023-05-07T00:09:13.170Z,47.19
2023-05-07T00:10:13.553Z,47.25
2023-05-07T00:11:12.247Z,47.25
2023-05-07T00:12:12.360Z,47.20
2023-05-07T00:13:13.585Z,47.27
2023-05-07T00:14:13.341Z,47.26
2023-05-07T00:15:12.721Z,47.22
2023-05-07T00:16:13.572Z,47.29
2023-05-07T00:17:12.584Z,47.27
2023-05-07T00:18:12.680Z,47.29
2023-05-07T00:19:12.582Z,47.27
2023-05-07T00:20:13.871Z,47.27
2023-05-07T00:21:12.709Z,47.27
2023-05-07T00:22:12.714Z,47.28
2023-05-07T00:23:13.761Z,47.27
2023-05-07T00:24:13.784Z,47.26
2023-05-07T00:25:12.884Z,47.25
2023-05-07T00:26:12.913Z,47.28
2023-05-07T00:27:12.988Z,47.30
2023-05-07T00:28:13.030Z,47.24
2023-05-07T00:29:13.157Z,47.26
2023-05-07T00:30:13.227Z,47.26
2023-05-07T00:31:13.126Z,47.28
2023-05-07T00:32:13.412Z,47.23
2023-05-07T00:33:14.260Z,47.22
2023-05-07T00:34:13.260Z,47.33
2023-05-07T00:35:14.360Z,47.28
2023-05-07T00:36:14.440Z,47.23
2023-05-07T00:37:13.446Z,47.24
2023-05-07T00:38:13.442Z,47.27
2023-05-07T00:39:14.556Z,47.27
2023-05-07T00:40:13.837Z,47.29
2023-05-07T00:41:13.693Z,47.24
2023-05-07T00:42:14.710Z,47.30
2023-05-07T00:43:14.061Z,47.27
2023-05-07T00:44:14.843Z,47.25
2023-05-07T00:45:14.871Z,47.25
2023-05-07T00:46:14.887Z,47.31
2023-05-07T00:47:13.898Z,47.23
2023-05-07T00:48:13.941Z,47.24
2023-05-07T00:49:14.017Z,47.19
2023-05-07T00:50:15.079Z,47.16
2023-05-07T00:51:15.141Z,47.24
2023-05-07T00:52:14.172Z,47.27
2023-05-07T00:53:14.238Z,47.29
2023-05-07T00:54:15.281Z,47.24
2023-05-07T00:55:15.332Z,47.16
2023-05-07T00:56:15.405Z,47.25
2023-05-07T00:57:14.532Z,47.22
2023-05-07T00:58:14.732Z,47.24
2023-05-07T00:59:15.696Z,47.21
2023-05-07T01:00:15.055Z,47.26
2023-05-07T01:01:15.921Z,47.29
2023-05-07T01:02:14.801Z,47.27
2023-05-07T01:03:14.842Z,47.29
2023-05-07T01:04:14.994Z,47.29
2023-05-07T01:05:14.931Z,47.21
2023-05-07T01:06:15.056Z,47.30
2023-05-07T01:07:15.146Z,47.29
2023-05-07T01:08:15.229Z,47.27
2023-05-07T01:09:17.541Z,47.27
2023-05-07T01:10:16.308Z,47.25
2023-05-07T01:11:15.311Z,47.26
2023-05-07T01:12:16.412Z,47.27
2023-05-07T01:13:16.400Z,47.27
2023-05-07T01:14:15.435Z,47.28
2023-05-07T01:15:15.472Z,47.26
2023-05-07T01:16:16.600Z,47.22
2023-05-07T01:17:15.731Z,47.21
2023-05-07T01:18:16.693Z,47.25
2023-05-07T01:19:15.669Z,47.27
2023-05-07T01:20:15.724Z,47.34
2023-05-07T01:21:16.830Z,47.27
2023-05-07T01:22:15.866Z,47.27
2023-05-07T01:23:15.948Z,47.27
2023-05-07T01:24:15.925Z,47.24
2023-05-07T01:25:16.074Z,47.23
2023-05-07T01:26:16.019Z,47.27
2023-05-07T01:27:17.140Z,47.29
2023-05-07T01:28:16.194Z,47.29
2023-05-07T01:29:17.188Z,47.30
2023-05-07T01:30:16.230Z,47.24
2023-05-07T01:31:16.302Z,47.27
2023-05-07T01:32:16.333Z,47.23
2023-05-07T01:33:16.501Z,47.28
2023-05-07T01:34:16.481Z,47.20
2023-05-07T01:35:17.606Z,47.24
2023-05-07T01:36:17.600Z,47.28
2023-05-07T01:37:16.618Z,47.30
2023-05-07T01:38:17.716Z,47.29
2023-05-07T01:39:17.705Z,47.28
2023-05-07T01:40:16.808Z,47.25
2023-05-07T01:41:16.804Z,47.17
2023-05-07T01:42:17.853Z,47.25
2023-05-07T01:43:17.000Z,47.22
2023-05-07T01:44:17.974Z,47.28
2023-05-07T01:45:18.013Z,47.18
2023-05-07T01:46:17.165Z,47.22
2023-05-07T01:47:17.119Z,47.27
2023-05-07T01:48:18.276Z,47.27
2023-05-07T01:49:17.384Z,47.31
2023-05-07T01:50:17.311Z,47.28
2023-05-07T01:51:18.429Z,47.21
2023-05-07T01:52:17.468Z,47.22
2023-05-07T01:53:17.457Z,47.24
2023-05-07T01:54:17.709Z,47.17
2023-05-07T01:55:17.597Z,47.27
2023-05-07T01:56:17.759Z,47.25
2023-05-07T01:57:17.801Z,47.25
2023-05-07T01:58:17.783Z,47.27
2023-05-07T01:59:18.854Z,47.24
2023-05-07T02:00:17.964Z,47.28
2023-05-07T02:01:18.007Z,47.23
2023-05-07T02:02:19.096Z,47.22
2023-05-07T02:03:18.253Z,47.24
2023-05-07T02:04:19.272Z,47.28
2023-05-07T02:05:19.437Z,47.28
2023-05-07T02:06:18.287Z,47.21
2023-05-07T02:07:18.419Z,47.24
2023-05-07T02:08:18.483Z,47.28
2023-05-07T02:09:18.751Z,47.24
2023-05-07T02:10:18.630Z,47.16
2023-05-07T02:11:19.601Z,47.20
2023-05-07T02:12:19.686Z,47.22
2023-05-07T02:13:18.859Z,47.23
2023-05-07T02:14:18.944Z,47.17
2023-05-07T02:15:19.888Z,47.18
2023-05-07T02:16:19.025Z,47.20
2023-05-07T02:17:18.990Z,47.17
2023-05-07T02:18:20.033Z,47.21
2023-05-07T02:19:19.200Z,47.24
2023-05-07T02:20:20.102Z,47.27
2023-05-07T02:21:19.387Z,47.22
2023-05-07T02:22:19.292Z,47.24
2023-05-07T02:23:20.374Z,47.26
2023-05-07T02:24:20.827Z,47.22
2023-05-07T02:25:19.454Z,47.26
2023-05-07T02:26:19.578Z,47.30
2023-05-07T02:27:20.605Z,47.23
2023-05-07T02:28:19.651Z,47.29
2023-05-07T02:29:20.748Z,47.27
2023-05-07T02:30:19.702Z,47.27
2023-05-07T02:31:20.852Z,47.23
2023-05-07T02:32:20.812Z,47.23
2023-05-07T02:33:19.966Z,47.19
2023-05-07T02:34:19.941Z,47.18
2023-05-07T02:35:19.990Z,47.27
2023-05-07T02:36:20.111Z,47.19
2023-05-07T02:37:20.286Z,47.22
2023-05-07T02:38:20.274Z,47.20
2023-05-07T02:39:20.293Z,47.23
2023-05-07T02:40:21.293Z,47.24
2023-05-07T02:41:20.414Z,47.26
2023-05-07T02:42:20.515Z,47.25
2023-05-07T02:43:20.561Z,47.25
2023-05-07T02:44:20.571Z,47.29
2023-05-07T02:45:21.646Z,47.27
2023-05-07T02:46:21.962Z,47.23
2023-05-07T02:47:20.708Z,47.16
2023-05-07T02:48:21.868Z,47.23
2023-05-07T02:49:20.877Z,47.25
2023-05-07T02:50:21.997Z,47.13
2023-05-07T02:51:21.841Z,47.22
2023-05-07T02:52:22.256Z,47.23
2023-05-07T02:53:22.176Z,47.07
2023-05-07T02:54:21.233Z,47.18
2023-05-07T02:55:21.279Z,47.18
2023-05-07T02:56:22.300Z,47.20
2023-05-07T02:57:22.419Z,47.18
2023-05-07T02:58:21.473Z,47.21
2023-05-07T02:59:21.437Z,47.23
2023-05-07T03:00:21.561Z,47.14
2023-05-07T03:01:21.623Z,47.25
2023-05-07T03:02:21.708Z,47.18
2023-05-07T03:03:21.759Z,47.22
2023-05-07T03:04:22.878Z,47.20
2023-05-07T03:05:22.939Z,47.27
2023-05-07T03:06:21.927Z,47.19
2023-05-07T03:07:22.028Z,47.22
2023-05-07T03:08:22.074Z,47.18
2023-05-07T03:09:23.243Z,47.26
2023-05-07T03:10:22.215Z,47.16
2023-05-07T03:11:22.165Z,47.26
2023-05-07T03:12:22.169Z,47.26
2023-05-07T03:13:22.328Z,47.29
2023-05-07T03:14:22.287Z,47.24
2023-05-07T03:15:22.271Z,47.17
2023-05-07T03:16:23.332Z,47.16
2023-05-07T03:17:23.355Z,47.19
2023-05-07T03:18:23.509Z,47.25
2023-05-07T03:19:22.433Z,47.20
2023-05-07T03:20:22.605Z,47.24
2023-05-07T03:21:22.542Z,47.21
2023-05-07T03:22:22.536Z,47.22
2023-05-07T03:23:24.904Z,47.27
2023-05-07T03:24:22.946Z,47.20
2023-05-07T03:25:22.911Z,47.28
2023-05-07T03:26:22.877Z,47.18
2023-05-07T03:27:22.878Z,47.18
2023-05-07T03:28:24.004Z,47.21
2023-05-07T03:29:22.967Z,47.16
2023-05-07T03:30:23.012Z,47.15
2023-05-07T03:31:24.047Z,47.16
2023-05-07T03:32:23.066Z,47.15
2023-05-07T03:33:24.130Z,47.09
2023-05-07T03:34:24.144Z,47.21
2023-05-07T03:35:23.218Z,47.17
2023-05-07T03:36:23.249Z,47.18
2023-05-07T03:37:23.315Z,47.17
2023-05-07T03:38:23.316Z,47.20
2023-05-07T03:39:23.422Z,47.22
2023-05-07T03:40:23.670Z,47.23
2023-05-07T03:41:24.462Z,47.17
2023-05-07T03:42:23.476Z,47.15
2023-05-07T03:43:24.556Z,47.13
2023-05-07T03:44:23.587Z,47.10
2023-05-07T03:45:24.670Z,47.16
2023-05-07T03:46:24.677Z,47.18
2023-05-07T03:47:23.623Z,47.12
2023-05-07T03:48:23.701Z,47.22
2023-05-07T03:49:24.748Z,47.13
2023-05-07T03:50:23.738Z,47.25
2023-05-07T03:51:24.739Z,47.21
2023-05-07T03:52:24.779Z,47.20
2023-05-07T03:53:23.778Z,47.24
2023-05-07T03:54:24.848Z,47.11
2023-05-07T03:55:23.879Z,47.17
2023-05-07T03:56:23.924Z,47.13
2023-05-07T03:57:24.925Z,47.11
2023-05-07T03:58:23.934Z,47.06
2023-05-07T03:59:23.937Z,47.14
2023-05-07T04:00:24.005Z,47.22
2023-05-07T04:01:24.075Z,47.06
2023-05-07T04:02:24.289Z,47.15
2023-05-07T04:03:25.256Z,47.19
2023-05-07T04:04:25.203Z,47.16
2023-05-07T04:05:24.210Z,47.14
2023-05-07T04:06:24.251Z,47.12
2023-05-07T04:07:24.218Z,47.15
2023-05-07T04:08:25.249Z,47.11
2023-05-07T04:09:24.289Z,47.17
2023-05-07T04:10:25.317Z,47.08
2023-05-07T04:11:24.430Z,47.19
2023-05-07T04:12:25.508Z,47.21
2023-05-07T04:13:25.394Z,47.20
2023-05-07T04:14:24.495Z,47.20
2023-05-07T04:15:25.457Z,47.19
2023-05-07T04:16:24.542Z,47.12
2023-05-07T04:17:25.647Z,47.14
2023-05-07T04:18:24.631Z,47.17
2023-05-07T04:19:24.618Z,47.14
2023-05-07T04:20:24.690Z,47.15
2023-05-07T04:21:24.682Z,47.17
2023-05-07T04:22:24.774Z,47.14
2023-05-07T04:23:24.760Z,47.18
2023-05-07T04:24:24.805Z,47.22
2023-05-07T04:25:24.826Z,47.16
2023-05-07T04:26:25.927Z,47.18
2023-05-07T04:27:24.910Z,47.15
2023-05-07T04:28:26.056Z,47.09
2023-05-07T04:29:25.028Z,47.13
2023-05-07T04:30:26.050Z,47.14
2023-05-07T04:31:26.220Z,47.21
2023-05-07T04:32:25.219Z,47.19
2023-05-07T04:33:26.161Z,47.22
2023-05-07T04:34:25.218Z,47.16
2023-05-07T04:35:25.276Z,47.16
2023-05-07T04:36:25.251Z,47.18
2023-05-07T04:37:26.322Z,47.16
2023-05-07T04:38:25.393Z,47.09
2023-05-07T04:39:25.446Z,47.20
2023-05-07T04:40:25.416Z,47.15
2023-05-07T04:41:25.473Z,47.11
2023-05-07T04:42:26.474Z,47.14
2023-05-07T04:43:26.547Z,47.15
2023-05-07T04:44:25.631Z,47.16
2023-05-07T04:45:25.581Z,47.07
2023-05-07T04:46:26.752Z,47.05
2023-05-07T04:47:26.680Z,47.14
2023-05-07T04:48:25.715Z,47.11
2023-05-07T04:49:26.751Z,47.04
2023-05-07T04:50:26.833Z,47.10
2023-05-07T04:51:26.904Z,47.16
2023-05-07T04:52:27.348Z,47.16
2023-05-07T04:53:26.908Z,47.10
2023-05-07T04:54:25.912Z,47.14
2023-05-07T04:55:27.020Z,47.02
2023-05-07T04:56:27.116Z,47.10
2023-05-07T04:57:26.166Z,47.03
2023-05-07T04:58:26.213Z,47.06
2023-05-07T04:59:27.239Z,47.10
2023-05-07T05:00:26.257Z,47.11
2023-05-07T05:01:27.427Z,47.12
2023-05-07T05:02:26.373Z,47.12
2023-05-07T05:03:26.468Z,47.06
2023-05-07T05:04:27.341Z,47.08
2023-05-07T05:05:27.431Z,47.08
2023-05-07T05:06:26.416Z,47.15
2023-05-07T05:07:27.453Z,46.97
2023-05-07T05:08:26.539Z,47.04
2023-05-07T05:09:26.496Z,47.07
2023-05-07T05:10:26.509Z,47.12
2023-05-07T05:11:27.613Z,47.12
2023-05-07T05:12:26.594Z,47.09
2023-05-07T05:13:27.580Z,47.11
2023-05-07T05:14:26.602Z,47.07
2023-05-07T05:15:26.637Z,47.05
2023-05-07T05:16:27.812Z,47.04
2023-05-07T05:17:26.713Z,47.09
2023-05-07T05:18:27.694Z,47.04
2023-05-07T05:19:26.732Z,47.06
2023-05-07T05:20:27.793Z,47.02
2023-05-07T05:21:27.923Z,47.06
2023-05-07T05:22:26.974Z,47.00
2023-05-07T05:23:27.959Z,47.01
2023-05-07T05:24:27.965Z,47.00
2023-05-07T05:25:27.998Z,47.00
2023-05-07T05:26:27.035Z,46.99
2023-05-07T05:27:28.187Z,47.00
2023-05-07T05:28:28.180Z,46.92
2023-05-07T05:29:28.203Z,46.95
2023-05-07T05:30:27.289Z,46.92
2023-05-07T05:31:27.289Z,46.98
2023-05-07T05:32:27.340Z,46.90
2023-05-07T05:33:28.281Z,46.93
2023-05-07T05:34:27.317Z,46.84
2023-05-07T05:35:28.471Z,46.90
2023-05-07T05:36:27.496Z,46.84
2023-05-07T05:37:27.496Z,46.79
2023-05-07T05:38:27.654Z,46.79
2023-05-07T05:39:27.617Z,46.86
2023-05-07T05:40:28.661Z,46.87
2023-05-07T05:41:27.802Z,46.86
2023-05-07T05:42:27.837Z,46.86
2023-05-07T05:43:27.823Z,46.84
2023-05-07T05:44:28.901Z,46.79
2023-05-07T05:45:28.016Z,46.81
2023-05-07T05:46:28.098Z,46.81
2023-05-07T05:47:28.185Z,46.74
2023-05-07T05:48:29.320Z,46.79
2023-05-07T05:49:28.229Z,46.68
2023-05-07T05:50:29.325Z,46.69
2023-05-07T05:51:28.364Z,46.71
2023-05-07T05:52:29.458Z,46.69
2023-05-07T05:53:28.498Z,46.68
2023-05-07T05:54:28.593Z,46.69
2023-05-07T05:55:28.590Z,46.64
2023-05-07T05:56:28.641Z,46.65
2023-05-07T05:57:29.009Z,46.68
2023-05-07T05:58:29.812Z,46.48
2023-05-07T05:59:28.926Z,46.55
2023-05-07T06:00:28.796Z,46.60
2023-05-07T06:01:28.857Z,46.56
2023-05-07T06:02:30.056Z,46.45
2023-05-07T06:03:30.056Z,46.50
2023-05-07T06:04:30.149Z,46.49
2023-05-07T06:05:29.035Z,46.44
2023-05-07T06:06:30.040Z,46.48
2023-05-07T06:07:30.077Z,46.44
2023-05-07T06:08:30.219Z,46.45
2023-05-07T06:09:30.344Z,46.46
2023-05-07T06:10:29.266Z,46.40
2023-05-07T06:11:29.374Z,46.43
2023-05-07T06:12:29.420Z,46.36
2023-05-07T06:13:29.502Z,46.36
2023-05-07T06:14:30.511Z,46.40
2023-05-07T06:15:30.569Z,46.34
2023-05-07T06:16:30.757Z,46.32
2023-05-07T06:17:29.805Z,46.30
2023-05-07T06:18:29.831Z,46.28
2023-05-07T06:19:29.911Z,46.28
2023-05-07T06:20:30.088Z,46.26
2023-05-07T06:21:30.009Z,46.32
2023-05-07T06:22:29.999Z,46.19
2023-05-07T06:23:31.123Z,46.25
2023-05-07T06:24:30.124Z,46.18
2023-05-07T06:25:31.175Z,46.23
2023-05-07T06:26:30.251Z,46.17
2023-05-07T06:27:30.355Z,46.24
2023-05-07T06:28:31.360Z,46.19
2023-05-07T06:29:31.509Z,46.16
2023-05-07T06:30:30.492Z,46.14
2023-05-07T06:31:30.622Z,46.13
2023-05-07T06:32:30.653Z,46.15
2023-05-07T06:33:30.733Z,46.10
2023-05-07T06:34:30.729Z,46.10
2023-05-07T06:35:31.791Z,46.12
2023-05-07T06:36:30.941Z,46.13
2023-05-07T06:37:32.014Z,46.06
2023-05-07T06:38:32.042Z,46.05
2023-05-07T06:39:32.041Z,46.07
2023-05-07T06:40:31.194Z,46.03
2023-05-07T06:41:31.199Z,46.04
2023-05-07T06:42:31.266Z,46.05
2023-05-07T06:43:32.336Z,46.00
2023-05-07T06:44:31.365Z,45.98
2023-05-07T06:45:32.460Z,45.97
2023-05-07T06:46:32.464Z,45.95
2023-05-07T06:47:32.622Z,45.96
2023-05-07T06:48:32.623Z,45.95
2023-05-07T06:49:31.656Z,45.99
2023-05-07T06:50:31.756Z,45.90
2023-05-07T06:51:31.816Z,45.95
2023-05-07T06:52:32.000Z,45.89
2023-05-07T06:53:31.950Z,45.92
2023-05-07T06:54:32.026Z,45.84
2023-05-07T06:55:33.038Z,45.91
2023-05-07T06:56:32.106Z,45.86
2023-05-07T06:57:32.177Z,45.86
2023-05-07T06:58:32.200Z,45.86
2023-05-07T06:59:32.299Z,45.84
2023-05-07T07:00:32.319Z,45.79
2023-05-07T07:01:32.341Z,45.80
2023-05-07T07:02:32.433Z,45.84
2023-05-07T07:03:33.386Z,45.84
2023-05-07T07:04:33.515Z,45.76
2023-05-07T07:05:33.480Z,45.79
2023-05-07T07:06:32.573Z,45.78
2023-05-07T07:07:33.618Z,45.76
2023-05-07T07:08:32.619Z,45.77
2023-05-07T07:09:33.693Z,45.72
2023-05-07T07:10:33.759Z,45.66
2023-05-07T07:11:32.768Z,45.70
2023-05-07T07:12:32.847Z,45.70
2023-05-07T07:13:33.885Z,45.65
2023-05-07T07:14:32.959Z,45.67
2023-05-07T07:15:32.981Z,45.67
2023-05-07T07:16:33.150Z,45.64
2023-05-07T07:17:34.017Z,45.67
2023-05-07T07:18:34.072Z,45.63
2023-05-07T07:19:33.127Z,45.59
2023-05-07T07:20:33.160Z,45.62
2023-05-07T07:21:33.188Z,45.59
2023-05-07T07:22:33.211Z,45.58
2023-05-07T07:23:33.233Z,45.55
2023-05-07T07:24:33.268Z,45.56
2023-05-07T07:25:33.340Z,45.55
2023-05-07T07:26:34.332Z,45.51
2023-05-07T07:27:33.314Z,45.50
2023-05-07T07:28:33.347Z,45.48
2023-05-07T07:29:33.417Z,45.52
2023-05-07T07:30:33.462Z,45.49
2023-05-07T07:31:33.590Z,45.47
2023-05-07T07:32:33.520Z,45.47
2023-05-07T07:33:34.556Z,45.47
2023-05-07T07:34:34.539Z,45.48
2023-05-07T07:35:34.645Z,45.46
2023-05-07T07:36:42.867Z,45.47
2023-05-07T07:37:34.643Z,45.42
2023-05-07T07:38:33.587Z,45.43
2023-05-07T07:39:33.662Z,45.41
2023-05-07T07:40:34.591Z,45.38
2023-05-07T07:41:33.607Z,45.37
2023-05-07T07:42:33.606Z,45.38
2023-05-07T07:43:34.585Z,45.35
2023-05-07T07:44:34.582Z,45.33
2023-05-07T07:45:33.593Z,45.35
2023-05-07T07:46:33.566Z,45.32
2023-05-07T07:47:34.568Z,45.31
2023-05-07T07:48:34.538Z,45.29
2023-05-07T07:49:33.584Z,45.28
2023-05-07T07:50:44.691Z,45.29
2023-05-07T07:51:34.542Z,45.31
2023-05-07T07:52:34.545Z,45.27
2023-05-07T07:53:33.496Z,45.22
2023-05-07T07:54:34.528Z,45.23
2023-05-07T07:55:33.671Z,45.23
2023-05-07T07:56:34.618Z,45.22
2023-05-07T07:57:33.529Z,45.18
2023-05-07T07:58:34.452Z,45.17
2023-05-07T07:59:34.524Z,45.15
2023-05-07T08:00:34.470Z,45.15
2023-05-07T08:01:34.459Z,45.14
2023-05-07T08:02:33.506Z,45.12
2023-05-07T08:03:33.589Z,45.13
2023-05-07T08:04:33.604Z,45.14
2023-05-07T08:05:34.499Z,45.09
2023-05-07T08:06:33.513Z,45.11
2023-05-07T08:07:33.444Z,45.13
2023-05-07T08:08:33.384Z,45.13
2023-05-07T08:09:34.421Z,45.07
2023-05-07T08:10:35.259Z,45.14
2023-05-07T08:11:33.465Z,45.11
2023-05-07T08:12:34.574Z,45.10
2023-05-07T08:13:33.543Z,45.07
2023-05-07T08:14:34.612Z,45.11
2023-05-07T08:15:33.621Z,45.05
2023-05-07T08:16:33.773Z,45.06
2023-05-07T08:17:33.596Z,45.10
2023-05-07T08:18:33.696Z,45.07
2023-05-07T08:19:33.717Z,45.05
2023-05-07T08:20:33.726Z,45.06
2023-05-07T08:21:34.720Z,45.07
2023-05-07T08:22:33.788Z,45.09
2023-05-07T08:23:33.693Z,45.07
2023-05-07T08:24:35.813Z,45.08
2023-05-07T08:25:33.722Z,45.09
2023-05-07T08:26:34.817Z,45.05
2023-05-07T08:27:34.918Z,45.04
2023-05-07T08:28:33.747Z,45.09
2023-05-07T08:29:34.755Z,45.03
2023-05-07T08:30:34.794Z,45.08
2023-05-07T08:31:33.811Z,45.07
2023-05-07T08:32:34.884Z,45.06
2023-05-07T08:33:34.859Z,45.04
2023-05-07T08:34:33.866Z,45.05
2023-05-07T08:35:33.775Z,45.08
2023-05-07T08:36:33.870Z,45.07
2023-05-07T08:37:33.862Z,45.10
2023-05-07T08:38:33.883Z,45.06
2023-05-07T08:39:33.909Z,45.08
2023-05-07T08:40:33.808Z,45.06
2023-05-07T08:41:33.912Z,45.07
2023-05-07T08:42:34.821Z,45.09
2023-05-07T08:43:34.910Z,45.06
2023-05-07T08:44:33.911Z,45.04
2023-05-07T08:45:33.857Z,45.05
2023-05-07T08:46:33.967Z,45.06
2023-05-07T08:47:33.883Z,45.06
2023-05-07T08:48:33.870Z,45.05
2023-05-07T08:49:34.965Z,45.05
2023-05-07T08:50:34.862Z,45.07
2023-05-07T08:51:33.877Z,45.07
2023-05-07T08:52:34.904Z,45.02
2023-05-07T08:53:33.947Z,45.07
2023-05-07T08:54:33.886Z,45.06
2023-05-07T08:55:33.921Z,45.09
2023-05-07T08:56:33.887Z,45.04
2023-05-07T08:57:33.886Z,45.09
2023-05-07T08:58:33.872Z,45.05
2023-05-07T08:59:34.015Z,45.06
2023-05-07T09:00:33.859Z,45.02
2023-05-07T09:01:34.924Z,45.07
2023-05-07T09:02:34.980Z,45.07
2023-05-07T09:03:33.973Z,45.08
2023-05-07T09:04:34.949Z,45.07
2023-05-07T09:05:33.950Z,45.02
2023-05-07T09:06:34.975Z,45.05
2023-05-07T09:07:34.979Z,45.06
2023-05-07T09:08:33.969Z,45.05
2023-05-07T09:09:33.943Z,45.04
2023-05-07T09:10:34.943Z,45.08
2023-05-07T09:11:33.939Z,45.05
2023-05-07T09:12:35.068Z,45.05
2023-05-07T09:13:33.955Z,45.08
2023-05-07T09:14:33.904Z,45.06
2023-05-07T09:15:34.035Z,45.05
2023-05-07T09:16:34.908Z,45.05
2023-05-07T09:17:34.897Z,45.06
2023-05-07T09:18:33.841Z,45.04
2023-05-07T09:19:34.836Z,45.06
2023-05-07T09:20:34.924Z,45.04
2023-05-07T09:21:33.931Z,45.02
2023-05-07T09:22:34.968Z,45.03
2023-05-07T09:23:33.941Z,45.01
2023-05-07T09:24:33.929Z,45.02
2023-05-07T09:25:34.902Z,45.05
2023-05-07T09:26:33.886Z,45.02
2023-05-07T09:27:33.874Z,44.99
2023-05-07T09:28:34.227Z,45.05
2023-05-07T09:29:34.870Z,45.02
2023-05-07T09:30:34.996Z,45.01
2023-05-07T09:31:34.037Z,45.04
2023-05-07T09:32:34.928Z,45.08
2023-05-07T09:33:34.987Z,45.02
2023-05-07T09:34:34.838Z,45.04
2023-05-07T09:35:33.850Z,45.04
2023-05-07T09:36:33.938Z,45.03
2023-05-07T09:37:33.839Z,45.01
2023-05-07T09:38:35.472Z,45.02
2023-05-07T09:39:33.859Z,45.03
2023-05-07T09:40:34.925Z,45.01
2023-05-07T09:41:34.917Z,45.03
2023-05-07T09:42:33.914Z,45.01
2023-05-07T09:43:34.832Z,45.03
2023-05-07T09:44:34.812Z,45.03
2023-05-07T09:45:33.886Z,45.02
2023-05-07T09:46:33.824Z,45.03
2023-05-07T09:47:35.115Z,45.04
2023-05-07T09:48:33.869Z,45.03
2023-05-07T09:49:33.865Z,44.99
2023-05-07T09:50:33.850Z,45.03
2023-05-07T09:51:33.785Z,45.03
2023-05-07T09:52:34.847Z,45.04
2023-05-07T09:53:34.862Z,45.00
2023-05-07T09:54:33.883Z,45.00
2023-05-07T09:55:33.848Z,44.98
2023-05-07T09:56:33.865Z,45.00
2023-05-07T09:57:33.827Z,44.98
2023-05-07T09:58:33.805Z,45.03
2023-05-07T09:59:34.871Z,44.97
2023-05-07T10:00:33.885Z,44.98
2023-05-07T10:01:34.974Z,45.02
2023-05-07T10:02:34.015Z,45.01
2023-05-07T10:03:35.064Z,45.05
2023-05-07T10:04:34.942Z,44.99
2023-05-07T10:05:33.975Z,44.97
2023-05-07T10:06:33.970Z,45.02
2023-05-07T10:07:34.957Z,44.96
2023-05-07T10:08:34.995Z,44.97
2023-05-07T10:09:34.993Z,45.03
2023-05-07T10:10:35.037Z,45.01
2023-05-07T10:11:35.100Z,45.00
2023-05-07T10:12:34.062Z,44.98
2023-05-07T10:13:35.085Z,45.00
2023-05-07T10:14:35.129Z,45.00
2023-05-07T10:15:34.210Z,44.97
2023-05-07T10:16:34.252Z,45.05
2023-05-07T10:17:34.389Z,45.00
2023-05-07T10:18:34.440Z,45.01
2023-05-07T10:19:35.247Z,45.00
2023-05-07T10:20:35.301Z,44.99
2023-05-07T10:21:34.331Z,44.99
2023-05-07T10:22:35.398Z,44.95
2023-05-07T10:23:34.399Z,44.95
2023-05-07T10:24:35.417Z,44.95
2023-05-07T10:25:34.456Z,44.98
2023-05-07T10:26:35.390Z,44.96
2023-05-07T10:27:34.527Z,44.99
2023-05-07T10:28:34.469Z,44.94
2023-05-07T10:29:34.372Z,44.94
2023-05-07T10:30:37.515Z,44.92
2023-05-07T10:31:35.461Z,44.92
2023-05-07T10:32:34.445Z,45.01
2023-05-07T10:33:35.394Z,44.92
2023-05-07T10:34:34.406Z,44.97
2023-05-07T10:35:34.540Z,44.93
2023-05-07T10:36:37.028Z,44.92
2023-05-07T10:37:34.272Z,44.92
2023-05-07T10:38:35.374Z,44.91
2023-05-07T10:39:34.326Z,44.92
2023-05-07T10:40:34.332Z,44.92
2023-05-07T10:41:34.335Z,44.92
2023-05-07T10:42:35.330Z,44.94
2023-05-07T10:43:34.238Z,44.90
2023-05-07T10:44:34.325Z,44.92
2023-05-07T10:45:34.284Z,44.90
2023-05-07T10:46:34.379Z,44.88
2023-05-07T10:47:35.261Z,44.89
2023-05-07T10:48:34.363Z,44.88
2023-05-07T10:49:34.235Z,44.89
2023-05-07T10:50:34.363Z,44.91
2023-05-07T10:51:34.354Z,44.93
2023-05-07T10:52:35.260Z,44.88
2023-05-07T10:53:35.248Z,44.85
2023-05-07T10:54:37.488Z,44.91
2023-05-07T10:55:34.268Z,44.88
2023-05-07T10:56:34.253Z,44.87
2023-05-07T10:57:34.234Z,44.89
2023-05-07T10:58:34.150Z,44.86
2023-05-07T10:59:35.222Z,44.92
2023-05-07T11:01:34.167Z,44.87
2023-05-07T11:02:34.216Z,44.84
2023-05-07T11:03:34.164Z,44.84
2023-05-07T11:04:35.172Z,44.87
2023-05-07T11:05:37.309Z,44.87
2023-05-07T11:06:34.098Z,44.84
2023-05-07T11:07:35.200Z,44.88
2023-05-07T11:08:34.089Z,44.81
2023-05-07T11:09:34.088Z,44.80
2023-05-07T11:10:35.067Z,44.82
2023-05-07T11:11:36.212Z,44.81
2023-05-07T11:12:34.150Z,44.79
2023-05-07T11:13:34.062Z,44.82
2023-05-07T11:14:35.184Z,44.80
2023-05-07T11:15:34.111Z,44.80
2023-05-07T11:16:34.228Z,44.80
2023-05-07T11:17:36.978Z,44.77
2023-05-07T11:18:34.227Z,44.80
2023-05-07T11:19:34.099Z,44.78
2023-05-07T11:20:35.161Z,44.75
2023-05-07T11:21:34.085Z,44.76
2023-05-07T11:22:34.197Z,44.81
2023-05-07T11:23:34.216Z,44.77
2023-05-07T11:24:35.115Z,44.77
2023-05-07T11:25:35.086Z,44.78
2023-05-07T11:26:35.124Z,44.76
2023-05-07T11:27:34.082Z,44.73
2023-05-07T11:28:34.122Z,44.76
2023-05-07T11:29:34.072Z,44.80
2023-05-07T11:30:34.144Z,44.79
2023-05-07T11:31:34.132Z,44.78
2023-05-07T11:32:35.033Z,44.75
2023-05-07T11:33:34.079Z,44.81
2023-05-07T11:34:35.007Z,44.83
2023-05-07T11:35:37.152Z,44.79
2023-05-07T11:36:34.085Z,44.80
2023-05-07T11:37:34.010Z,44.77
2023-05-07T11:38:34.197Z,44.82
2023-05-07T11:39:34.119Z,44.83
2023-05-07T11:40:33.983Z,44.78
2023-05-07T11:41:34.099Z,44.86
2023-05-07T11:42:34.039Z,44.76
2023-05-07T11:43:33.963Z,44.82
2023-05-07T11:44:34.005Z,44.79
2023-05-07T11:45:34.068Z,44.83
2023-05-07T11:46:33.982Z,44.83
2023-05-07T11:47:35.146Z,44.87
2023-05-07T11:48:33.950Z,44.83
2023-05-07T11:49:34.950Z,44.81
2023-05-07T11:50:33.904Z,44.86
2023-05-07T11:51:34.971Z,44.82
2023-05-07T11:52:33.940Z,44.90
2023-05-07T11:53:34.978Z,44.86
2023-05-07T11:54:34.952Z,44.89
2023-05-07T11:55:34.983Z,44.83
2023-05-07T11:56:33.904Z,44.82
2023-05-07T11:57:33.910Z,44.83
2023-05-07T11:58:33.918Z,44.86
2023-05-07T11:59:33.847Z,44.82
2023-05-07T12:00:34.020Z,44.83
2023-05-07T12:01:33.834Z,44.84
2023-05-07T12:02:34.895Z,44.83
2023-05-07T12:03:36.440Z,44.86
2023-05-07T12:04:33.885Z,44.78
2023-05-07T12:05:33.839Z,44.79
2023-05-07T12:06:34.825Z,44.83
2023-05-07T12:07:33.786Z,44.87
2023-05-07T12:08:34.795Z,44.82
2023-05-07T12:09:33.830Z,44.87
2023-05-07T12:10:33.845Z,44.87
2023-05-07T12:11:33.851Z,44.87
2023-05-07T12:12:33.837Z,44.80
2023-05-07T12:13:33.844Z,44.87
2023-05-07T12:14:33.733Z,44.86
2023-05-07T12:15:33.852Z,44.83
2023-05-07T12:16:33.829Z,44.85
2023-05-07T12:17:34.826Z,44.85
2023-05-07T12:18:33.762Z,44.84
2023-05-07T12:19:33.700Z,44.87
2023-05-07T12:20:34.740Z,44.84
2023-05-07T12:21:33.757Z,44.87
2023-05-07T12:22:34.741Z,44.88
2023-05-07T12:23:33.780Z,44.88
2023-05-07T12:24:33.863Z,44.83
2023-05-07T12:25:33.654Z,44.82
2023-05-07T12:26:34.740Z,44.87
2023-05-07T12:27:34.749Z,44.82
2023-05-07T12:28:33.700Z,44.84
2023-05-07T12:29:34.657Z,44.87
2023-05-07T12:30:33.637Z,44.87
2023-05-07T12:31:34.824Z,44.87
2023-05-07T12:32:34.763Z,44.89
2023-05-07T12:33:33.707Z,44.90
2023-05-07T12:34:33.666Z,44.88
2023-05-07T12:35:33.768Z,44.91
2023-05-07T12:36:33.816Z,44.89
2023-05-07T12:37:33.813Z,44.87
2023-05-07T12:38:34.843Z,44.89
2023-05-07T12:39:35.039Z,44.91
2023-05-07T12:40:34.964Z,44.90
2023-05-07T12:41:34.039Z,44.89
2023-05-07T12:42:34.073Z,44.87
2023-05-07T12:43:34.140Z,44.93
2023-05-07T12:44:34.142Z,44.92
2023-05-07T12:45:34.190Z,44.90
2023-05-07T12:46:35.259Z,44.87
2023-05-07T12:47:34.280Z,44.93
2023-05-07T12:48:35.392Z,44.87
2023-05-07T12:49:34.363Z,44.91
2023-05-07T12:50:34.415Z,44.87
2023-05-07T12:51:34.584Z,44.92
2023-05-07T12:52:34.515Z,44.87
2023-05-07T12:53:34.616Z,44.89